createdAt,value
2019-03-24T00:00:12.468Z,26.13
2019-03-24T00:02:43.360Z,26.37
2019-03-24T00:05:12.652Z,25.40
2019-03-24T00:07:41.933Z,25.93
2019-03-24T00:10:12.149Z,25.97
2019-03-24T00:12:41.438Z,24.67
2019-03-24T00:15:11.474Z,26.87
2019-03-24T00:17:40.757Z,25.33
2019-03-24T00:20:10.495Z,24.40
2019-03-24T00:22:39.827Z,24.90
2019-03-24T00:25:09.348Z,24.23
2019-03-24T00:27:38.620Z,21.67
2019-03-24T00:30:08.874Z,19.90
2019-03-24T00:32:38.120Z,18.23
2019-03-24T00:35:07.472Z,18.90
2019-03-24T00:37:36.741Z,18.60
2019-03-24T00:40:07.164Z,17.97
2019-03-24T00:42:36.438Z,17.50
2019-03-24T00:45:07.831Z,17.50
2019-03-24T00:47:37.109Z,18.10
2019-03-24T00:50:08.141Z,17.77
2019-03-24T00:52:37.419Z,15.63
2019-03-24T00:55:07.352Z,15.33
2019-03-24T00:57:37.750Z,15.63
2019-03-24T01:00:10.060Z,15.10
2019-03-24T01:02:39.325Z,15.27
2019-03-24T01:05:09.778Z,14.20
2019-03-24T01:07:39.208Z,13.93
2019-03-24T01:10:09.628Z,14.10
2019-03-24T01:12:38.897Z,12.93
2019-03-24T01:15:08.609Z,14.00
2019-03-24T01:17:38.762Z,13.53
2019-03-24T01:20:08.470Z,13.30
2019-03-24T01:22:37.744Z,12.53
2019-03-24T01:25:07.362Z,13.47
2019-03-24T01:27:36.639Z,13.87
2019-03-24T01:30:07.833Z,12.43
2019-03-24T01:32:38.076Z,12.60
2019-03-24T01:35:07.914Z,12.83
2019-03-24T01:37:37.222Z,12.23
2019-03-24T01:40:07.125Z,12.60
2019-03-24T01:42:36.404Z,13.13
2019-03-24T01:45:10.869Z,12.03
2019-03-24T01:47:40.150Z,12.40
2019-03-24T01:50:10.362Z,12.23
2019-03-24T01:52:39.639Z,12.93
2019-03-24T01:55:09.240Z,12.87
2019-03-24T01:57:38.519Z,13.07
2019-03-24T02:00:08.156Z,12.93
2019-03-24T02:02:37.435Z,12.63
2019-03-24T02:05:07.739Z,12.90
2019-03-24T02:07:37.015Z,12.07
2019-03-24T02:10:07.824Z,12.70
2019-03-24T02:12:37.100Z,12.67
2019-03-24T02:15:07.989Z,12.63
2019-03-24T02:17:38.229Z,12.87
2019-03-24T02:20:09.782Z,13.03
2019-03-24T02:22:39.055Z,12.13
2019-03-24T02:25:08.452Z,13.23
2019-03-24T02:27:37.732Z,13.37
2019-03-24T02:30:08.543Z,13.13
2019-03-24T02:32:37.817Z,12.73
2019-03-24T02:35:07.640Z,12.97
2019-03-24T02:37:36.905Z,12.80
2019-03-24T02:40:08.624Z,13.23
2019-03-24T02:42:37.902Z,12.97
2019-03-24T02:45:07.930Z,14.13
2019-03-24T02:47:38.168Z,13.10
2019-03-24T02:50:08.859Z,12.43
2019-03-24T02:52:38.120Z,14.00
2019-03-24T02:55:07.932Z,13.40
2019-03-24T02:57:38.184Z,13.33
2019-03-24T03:00:09.123Z,13.80
2019-03-24T03:02:38.435Z,14.10
2019-03-24T03:05:08.953Z,15.47
2019-03-24T03:07:38.233Z,14.70
2019-03-24T03:10:08.245Z,14.10
2019-03-24T03:12:37.517Z,14.63
2019-03-24T03:15:08.136Z,13.83
2019-03-24T03:17:37.474Z,14.20
2019-03-24T03:20:08.909Z,14.67
2019-03-24T03:22:38.264Z,15.00
2019-03-24T03:25:08.250Z,14.23
2019-03-24T03:27:37.517Z,16.07
2019-03-24T03:30:08.838Z,14.63
2019-03-24T03:32:38.253Z,14.67
2019-03-24T03:35:08.899Z,14.67
2019-03-24T03:37:38.222Z,17.03
2019-03-24T03:40:08.235Z,16.33
2019-03-24T03:42:39.160Z,16.67
2019-03-24T03:45:10.079Z,17.20
2019-03-24T03:47:40.598Z,15.73
2019-03-24T03:50:10.381Z,16.30
2019-03-24T03:52:39.644Z,17.17
2019-03-24T03:55:09.052Z,18.50
2019-03-24T03:57:38.393Z,16.77
2019-03-24T04:00:08.510Z,17.97
2019-03-24T04:02:37.778Z,18.30
2019-03-24T04:05:07.127Z,18.70
2019-03-24T04:07:36.391Z,17.97
2019-03-24T04:10:05.913Z,18.83
2019-03-24T04:12:35.181Z,18.57
2019-03-24T04:15:06.803Z,18.67
2019-03-24T04:17:36.069Z,18.80
2019-03-24T04:20:06.788Z,17.93
2019-03-24T04:22:36.100Z,19.67
2019-03-24T04:25:06.585Z,19.17
2019-03-24T04:27:35.889Z,18.17
2019-03-24T04:30:07.409Z,19.03
2019-03-24T04:32:36.685Z,19.87
2019-03-24T04:35:07.800Z,19.23
2019-03-24T04:37:37.073Z,20.03
2019-03-24T04:40:06.888Z,20.00
2019-03-24T04:42:36.161Z,20.10
2019-03-24T04:45:06.190Z,19.10
2019-03-24T04:47:35.475Z,19.27
2019-03-24T04:50:07.081Z,21.73
2019-03-24T04:52:36.352Z,19.77
2019-03-24T04:55:06.863Z,19.40
2019-03-24T04:57:36.137Z,21.53
2019-03-24T05:00:08.631Z,20.30
2019-03-24T05:02:37.970Z,21.87
2019-03-24T05:05:07.697Z,19.67
2019-03-24T05:07:37.030Z,20.90
2019-03-24T05:10:08.895Z,20.93
2019-03-24T05:12:38.158Z,20.73
2019-03-24T05:15:07.437Z,21.53
2019-03-24T05:17:36.720Z,22.10
2019-03-24T05:20:07.123Z,22.80
2019-03-24T05:22:36.406Z,21.47
2019-03-24T05:25:05.740Z,21.80
2019-03-24T05:27:35.020Z,21.73
2019-03-24T05:30:06.529Z,22.23
2019-03-24T05:32:35.808Z,22.73
2019-03-24T05:35:06.615Z,21.40
2019-03-24T05:37:35.893Z,22.30
2019-03-24T05:40:05.524Z,24.00
2019-03-24T05:42:34.834Z,22.30
2019-03-24T05:45:07.062Z,23.40
2019-03-24T05:47:37.675Z,22.63
2019-03-24T05:50:10.383Z,23.30
2019-03-24T05:52:39.648Z,23.07
2019-03-24T05:55:08.980Z,23.17
2019-03-24T05:57:38.260Z,23.97
2019-03-24T06:00:08.564Z,24.00
2019-03-24T06:02:37.907Z,24.40
2019-03-24T06:05:07.523Z,23.50
2019-03-24T06:07:36.797Z,22.20
2019-03-24T06:10:07.604Z,24.30
2019-03-24T06:12:36.881Z,25.67
2019-03-24T06:15:08.386Z,23.43
2019-03-24T06:17:47.334Z,24.10
2019-03-24T06:20:09.150Z,24.33
2019-03-24T06:22:38.506Z,23.37
2019-03-24T06:25:07.908Z,24.00
2019-03-24T06:27:37.190Z,23.87
2019-03-24T06:30:07.810Z,23.90
2019-03-24T06:32:37.079Z,24.80
2019-03-24T06:35:06.784Z,24.20
2019-03-24T06:37:36.297Z,25.00
2019-03-24T06:40:06.909Z,24.87
2019-03-24T06:42:36.184Z,23.83
2019-03-24T06:45:07.384Z,24.77
2019-03-24T06:47:36.671Z,24.63
2019-03-24T06:50:07.653Z,25.63
2019-03-24T06:52:36.929Z,26.10
2019-03-24T06:55:06.337Z,26.47
2019-03-24T06:57:35.653Z,25.27
2019-03-24T07:00:07.141Z,25.97
2019-03-24T07:02:36.409Z,26.73
2019-03-24T07:05:06.330Z,26.90
2019-03-24T07:07:36.569Z,26.47
2019-03-24T07:10:09.132Z,27.50
2019-03-24T07:12:38.467Z,26.03
2019-03-24T07:15:08.272Z,25.70
2019-03-24T07:17:37.753Z,26.13
2019-03-24T07:20:07.444Z,27.17
2019-03-24T07:22:36.709Z,26.10
2019-03-24T07:25:06.429Z,25.63
2019-03-24T07:27:35.701Z,27.73
2019-03-24T07:30:09.271Z,26.03
2019-03-24T07:32:38.629Z,24.87
2019-03-24T07:35:08.533Z,26.27
2019-03-24T07:37:37.801Z,24.50
2019-03-24T07:40:08.231Z,25.80
2019-03-24T07:42:37.576Z,25.63
2019-03-24T07:45:08.694Z,26.57
2019-03-24T07:47:37.969Z,25.93
2019-03-24T07:50:09.193Z,25.93
2019-03-24T07:52:38.472Z,23.63
2019-03-24T07:55:07.906Z,22.40
2019-03-24T07:57:37.172Z,24.53
2019-03-24T08:00:08.888Z,22.93
2019-03-24T08:02:38.173Z,24.43
2019-03-24T08:05:07.612Z,19.03
2019-03-24T08:07:36.876Z,16.80
2019-03-24T08:10:07.803Z,18.27
2019-03-24T08:12:37.107Z,17.67
2019-03-24T08:15:06.660Z,18.67
2019-03-24T08:17:35.932Z,19.80
2019-03-24T08:20:06.757Z,18.47
2019-03-24T08:22:36.025Z,16.83
2019-03-24T08:25:06.537Z,17.87
2019-03-24T08:27:36.779Z,17.67
2019-03-24T08:30:07.295Z,16.80
2019-03-24T08:32:36.568Z,17.57
2019-03-24T08:35:07.156Z,19.00
2019-03-24T08:37:36.597Z,21.17
2019-03-24T08:40:07.249Z,20.47
2019-03-24T08:42:36.559Z,19.80
2019-03-24T08:45:06.202Z,20.87
2019-03-24T08:47:35.479Z,21.90
2019-03-24T08:50:06.913Z,21.53
2019-03-24T08:52:36.177Z,20.33
2019-03-24T08:55:07.377Z,20.13
2019-03-24T08:57:36.652Z,20.20
2019-03-24T09:00:06.685Z,21.67
2019-03-24T09:02:35.964Z,19.63
2019-03-24T09:05:06.385Z,19.20
2019-03-24T09:07:35.664Z,18.87
2019-03-24T09:10:06.573Z,18.73
2019-03-24T09:12:35.848Z,17.57
2019-03-24T09:15:07.912Z,19.37
2019-03-24T09:17:38.263Z,20.20
2019-03-24T09:20:09.002Z,19.50
2019-03-24T09:22:38.317Z,19.43
2019-03-24T09:25:07.927Z,18.57
2019-03-24T09:27:37.195Z,17.93
2019-03-24T09:30:09.582Z,17.67
2019-03-24T09:32:38.842Z,19.20
2019-03-24T09:35:08.111Z,18.03
2019-03-24T09:37:37.389Z,17.07
2019-03-24T09:40:09.181Z,18.13
2019-03-24T09:42:38.480Z,18.00
2019-03-24T09:45:07.992Z,17.07
2019-03-24T09:47:37.283Z,16.63
2019-03-24T09:50:06.614Z,18.10
2019-03-24T09:52:35.897Z,16.30
2019-03-24T09:55:06.719Z,15.73
2019-03-24T09:57:35.992Z,17.43
2019-03-24T10:00:06.526Z,17.43
2019-03-24T10:02:35.801Z,16.60
2019-03-24T10:05:06.228Z,15.30
2019-03-24T10:07:35.561Z,15.57
2019-03-24T10:10:06.576Z,13.67
2019-03-24T10:12:35.836Z,11.77
2019-03-24T10:15:05.968Z,12.40
2019-03-24T10:17:35.252Z,12.73
2019-03-24T10:20:06.113Z,9.87
2019-03-24T10:22:35.504Z,10.50
2019-03-24T10:25:06.624Z,9.53
2019-03-24T10:27:35.906Z,9.27
2019-03-24T10:30:07.937Z,10.70
2019-03-24T10:32:37.225Z,10.17
2019-03-24T10:35:07.474Z,10.23
2019-03-24T10:37:36.876Z,10.50
2019-03-24T10:40:07.989Z,10.03
2019-03-24T10:42:37.452Z,10.70
2019-03-24T10:45:07.651Z,9.73
2019-03-24T10:47:36.920Z,9.40
2019-03-24T10:50:08.508Z,9.93
2019-03-24T10:52:37.954Z,9.27
2019-03-24T10:55:09.433Z,8.27
2019-03-24T10:57:38.878Z,10.40
2019-03-24T11:00:11.236Z,8.77
2019-03-24T11:02:40.596Z,8.50
2019-03-24T11:05:11.085Z,8.73
2019-03-24T11:07:41.333Z,8.53
2019-03-24T11:10:11.849Z,8.37
2019-03-24T11:12:41.125Z,7.67
2019-03-24T11:15:10.761Z,6.97
2019-03-24T11:17:40.037Z,7.27
2019-03-24T11:20:09.955Z,8.10
2019-03-24T11:22:39.225Z,8.60
2019-03-24T11:25:10.347Z,7.87
2019-03-24T11:27:39.620Z,7.27
2019-03-24T11:30:13.981Z,8.07
2019-03-24T11:32:43.257Z,7.87
2019-03-24T11:35:12.813Z,8.10
2019-03-24T11:37:42.085Z,7.80
2019-03-24T11:40:11.900Z,8.63
2019-03-24T11:42:41.168Z,7.57
2019-03-24T11:45:11.296Z,8.27
2019-03-24T11:47:40.568Z,7.83
2019-03-24T11:50:10.438Z,8.90
2019-03-24T11:52:39.712Z,8.43
2019-03-24T11:55:10.335Z,8.00
2019-03-24T11:57:39.615Z,8.10
2019-03-24T12:00:17.494Z,8.70
2019-03-24T12:02:46.754Z,8.10
2019-03-24T12:05:16.048Z,8.33
2019-03-24T12:07:45.372Z,7.43
2019-03-24T12:10:16.291Z,5.77
2019-03-24T12:12:45.560Z,6.93
2019-03-24T12:15:15.816Z,6.43
2019-03-24T12:17:45.080Z,5.50
2019-03-24T12:20:14.531Z,5.07
2019-03-24T12:22:43.820Z,5.40
2019-03-24T12:25:13.169Z,6.83
2019-03-24T12:27:43.409Z,7.13
2019-03-24T12:30:13.933Z,7.30
2019-03-24T12:32:43.209Z,6.53
2019-03-24T12:35:12.493Z,6.40
2019-03-24T12:37:41.764Z,6.83
2019-03-24T12:40:12.254Z,7.43
2019-03-24T12:42:41.521Z,8.40
2019-03-24T12:45:12.948Z,8.07
2019-03-24T12:47:42.271Z,6.90
2019-03-24T12:50:12.191Z,6.93
2019-03-24T12:52:41.502Z,6.93
2019-03-24T12:55:11.220Z,6.33
2019-03-24T12:57:40.492Z,6.10
2019-03-24T13:00:12.622Z,6.20
2019-03-24T13:02:41.975Z,5.33
2019-03-24T13:05:13.360Z,5.63
2019-03-24T13:07:42.715Z,5.13
2019-03-24T13:10:12.244Z,4.37
2019-03-24T13:12:41.529Z,3.43
2019-03-24T13:15:11.037Z,3.17
2019-03-24T13:17:40.320Z,3.80
2019-03-24T13:20:19.782Z,3.67
2019-03-24T13:22:40.934Z,4.23
2019-03-24T13:25:10.200Z,4.10
2019-03-24T13:27:39.485Z,3.97
2019-03-24T13:30:09.140Z,3.87
2019-03-24T13:32:38.413Z,3.83
2019-03-24T13:35:07.704Z,3.87
2019-03-24T13:37:36.980Z,3.70
2019-03-24T13:40:06.437Z,3.43
2019-03-24T13:42:35.712Z,3.83
2019-03-24T13:45:06.816Z,4.33
2019-03-24T13:47:36.104Z,4.20
2019-03-24T13:50:06.532Z,3.63
2019-03-24T13:52:35.816Z,3.23
2019-03-24T13:55:06.624Z,3.33
2019-03-24T13:57:35.972Z,3.20
2019-03-24T14:00:06.984Z,3.53
2019-03-24T14:02:36.261Z,3.73
2019-03-24T14:05:05.607Z,3.73
2019-03-24T14:07:34.946Z,3.57
2019-03-24T14:10:08.366Z,3.47
2019-03-24T14:12:37.653Z,2.73
2019-03-24T14:15:07.160Z,3.70
2019-03-24T14:17:36.812Z,2.97
2019-03-24T14:20:07.448Z,2.50
2019-03-24T14:22:36.696Z,2.40
2019-03-24T14:25:06.928Z,2.97
2019-03-24T14:27:36.219Z,2.83
2019-03-24T14:30:09.109Z,2.13
2019-03-24T14:32:39.477Z,2.33
2019-03-24T14:35:08.992Z,2.43
2019-03-24T14:37:38.409Z,2.50
2019-03-24T14:40:08.320Z,2.53
2019-03-24T14:42:49.812Z,2.03
2019-03-24T14:45:19.084Z,2.37
2019-03-24T14:47:48.381Z,2.40
2019-03-24T14:50:17.658Z,2.67
2019-03-24T14:52:46.934Z,1.97
2019-03-24T14:55:16.214Z,2.67
2019-03-24T14:57:45.476Z,2.13
2019-03-24T15:00:17.860Z,2.20
2019-03-24T15:02:47.129Z,1.90
2019-03-24T15:05:16.426Z,2.00
2019-03-24T15:07:45.672Z,2.33
2019-03-24T15:10:15.126Z,1.90
2019-03-24T15:12:44.387Z,2.17
2019-03-24T15:15:13.688Z,1.80
2019-03-24T15:17:42.956Z,2.10
2019-03-24T15:20:12.232Z,2.00
2019-03-24T15:22:41.493Z,2.37
2019-03-24T15:25:10.843Z,2.20
2019-03-24T15:27:40.111Z,2.40
2019-03-24T15:30:11.030Z,1.80
2019-03-24T15:32:40.300Z,2.27
2019-03-24T15:35:10.119Z,2.03
2019-03-24T15:37:39.380Z,2.30
2019-03-24T15:40:08.897Z,2.17
2019-03-24T15:42:38.164Z,1.93
2019-03-24T15:45:08.688Z,2.30
2019-03-24T15:47:37.955Z,2.20
2019-03-24T15:50:08.369Z,1.90
2019-03-24T15:52:37.704Z,2.10
2019-03-24T15:55:07.325Z,1.67
2019-03-24T15:57:36.592Z,1.87
2019-03-24T16:00:08.117Z,2.67
2019-03-24T16:02:37.412Z,1.87
2019-03-24T16:05:06.829Z,2.00
2019-03-24T16:07:36.096Z,1.87
2019-03-24T16:10:07.309Z,2.20
2019-03-24T16:12:36.658Z,1.73
2019-03-24T16:15:07.845Z,2.00
2019-03-24T16:17:37.110Z,2.00
2019-03-24T16:20:08.028Z,2.07
2019-03-24T16:22:37.298Z,1.97
2019-03-24T16:25:07.611Z,2.20
2019-03-24T16:27:36.881Z,2.20
2019-03-24T16:30:07.124Z,2.27
2019-03-24T16:32:36.391Z,2.80
2019-03-24T16:35:06.108Z,2.33
2019-03-24T16:37:35.559Z,1.70
2019-03-24T16:40:08.194Z,2.13
2019-03-24T16:42:37.469Z,1.57
2019-03-24T16:45:06.908Z,1.37
2019-03-24T16:47:36.196Z,2.00
2019-03-24T16:50:07.428Z,1.67
2019-03-24T16:52:36.724Z,1.87
2019-03-24T16:55:08.709Z,1.43
2019-03-24T16:57:37.988Z,1.97
2019-03-24T17:00:07.618Z,2.70
2019-03-24T17:02:36.960Z,1.80
2019-03-24T17:05:07.895Z,1.47
2019-03-24T17:07:37.172Z,1.80
2019-03-24T17:10:09.959Z,1.77
2019-03-24T17:12:39.314Z,1.60
2019-03-24T17:15:10.026Z,2.10
2019-03-24T17:17:39.614Z,1.80
2019-03-24T17:20:09.716Z,1.87
2019-03-24T17:22:39.009Z,1.60
2019-03-24T17:25:08.717Z,2.40
2019-03-24T17:27:38.004Z,1.90
2019-03-24T17:30:10.181Z,1.70
2019-03-24T17:32:40.561Z,1.53
2019-03-24T17:35:10.560Z,1.73
2019-03-24T17:37:39.833Z,2.23
2019-03-24T17:40:12.454Z,2.00
2019-03-24T17:42:41.898Z,2.00
2019-03-24T17:45:12.309Z,2.27
2019-03-24T17:47:41.589Z,2.20
2019-03-24T17:50:12.175Z,1.80
2019-03-24T17:52:41.625Z,2.03
2019-03-24T17:55:11.932Z,1.97
2019-03-24T17:57:41.210Z,2.07
2019-03-24T18:00:17.249Z,2.10
2019-03-24T18:02:46.521Z,1.90
2019-03-24T18:05:16.049Z,2.40
2019-03-24T18:07:45.318Z,2.23
2019-03-24T18:10:14.723Z,2.70
2019-03-24T18:12:43.988Z,2.20
2019-03-24T18:15:13.940Z,2.30
2019-03-24T18:17:43.221Z,2.27
2019-03-24T18:20:14.319Z,2.70
2019-03-24T18:22:43.573Z,2.50
2019-03-24T18:25:13.086Z,2.13
2019-03-24T18:27:42.348Z,2.90
2019-03-24T18:30:12.151Z,2.73
2019-03-24T18:32:41.428Z,2.50
2019-03-24T18:35:10.873Z,2.83
2019-03-24T18:37:41.122Z,3.23
2019-03-24T18:40:10.812Z,2.90
2019-03-24T18:42:40.081Z,2.43
2019-03-24T18:45:11.865Z,2.57
2019-03-24T18:47:42.263Z,2.47
2019-03-24T18:50:12.286Z,3.50
2019-03-24T18:52:42.528Z,2.93
2019-03-24T18:55:13.440Z,2.90
2019-03-24T18:57:42.708Z,3.10
2019-03-24T19:00:13.763Z,2.70
2019-03-24T19:02:43.057Z,3.20
2019-03-24T19:05:12.403Z,3.40
2019-03-24T19:07:42.639Z,3.50
2019-03-24T19:10:12.948Z,3.20
2019-03-24T19:12:42.221Z,2.90
2019-03-24T19:15:14.918Z,2.57
2019-03-24T19:17:44.266Z,2.80
2019-03-24T19:20:14.200Z,2.83
2019-03-24T19:22:43.465Z,2.73
2019-03-24T19:25:13.206Z,2.67
2019-03-24T19:27:42.468Z,4.43
2019-03-24T19:30:19.810Z,3.00
2019-03-24T19:32:49.088Z,3.40
2019-03-24T19:35:18.371Z,2.60
2019-03-24T19:37:47.638Z,3.00
2019-03-24T19:40:31.026Z,3.03
2019-03-24T19:43:00.281Z,2.30
2019-03-24T19:45:29.563Z,2.90
2019-03-24T19:47:59.807Z,3.37
2019-03-24T19:50:29.088Z,2.80
2019-03-24T19:52:58.348Z,2.80
2019-03-24T19:55:27.623Z,3.60
2019-03-24T19:57:56.889Z,2.83
2019-03-24T20:00:26.185Z,3.00
2019-03-24T20:02:55.451Z,3.70
2019-03-24T20:05:26.862Z,4.37
2019-03-24T20:07:55.774Z,3.37
2019-03-24T20:10:25.045Z,3.20
2019-03-24T20:12:54.325Z,2.67
2019-03-24T20:15:23.613Z,3.00
2019-03-24T20:17:53.948Z,3.63
2019-03-24T20:20:23.237Z,2.87
2019-03-24T20:22:56.743Z,2.97
2019-03-24T20:25:23.483Z,2.57
2019-03-24T20:27:52.752Z,3.53
2019-03-24T20:30:22.050Z,2.97
2019-03-24T20:32:51.327Z,2.63
2019-03-24T20:35:20.602Z,3.30
2019-03-24T20:37:49.890Z,2.93
2019-03-24T20:40:19.168Z,2.47
2019-03-24T20:42:48.456Z,2.90
2019-03-24T20:45:17.803Z,2.40
2019-03-24T20:47:47.099Z,3.20
2019-03-24T20:50:16.412Z,2.57
2019-03-24T20:52:45.688Z,2.57
2019-03-24T20:55:15.035Z,2.80
2019-03-24T20:57:44.402Z,2.87
2019-03-24T21:00:14.107Z,2.83
2019-03-24T21:02:43.885Z,3.00
2019-03-24T21:05:13.173Z,3.37
2019-03-24T21:07:42.449Z,3.30
2019-03-24T21:10:11.866Z,2.47
2019-03-24T21:12:41.155Z,3.00
2019-03-24T21:15:11.638Z,3.03
2019-03-24T21:17:42.185Z,3.67
2019-03-24T21:20:11.625Z,3.90
2019-03-24T21:22:40.939Z,4.40
2019-03-24T21:25:10.961Z,3.17
2019-03-24T21:27:40.252Z,3.70
2019-03-24T21:30:11.072Z,3.70
2019-03-24T21:32:40.353Z,3.40
2019-03-24T21:35:09.789Z,3.70
2019-03-24T21:37:39.060Z,3.70
2019-03-24T21:40:08.410Z,3.83
2019-03-24T21:42:37.689Z,3.30
2019-03-24T21:45:08.204Z,4.03
2019-03-24T21:47:37.484Z,4.20
2019-03-24T21:50:07.629Z,3.63
2019-03-24T21:52:36.900Z,3.87
2019-03-24T21:55:06.727Z,3.57
2019-03-24T21:57:35.985Z,3.10
2019-03-24T22:00:09.875Z,3.87
2019-03-24T22:02:40.311Z,5.00
2019-03-24T22:05:09.769Z,4.73
2019-03-24T22:07:39.037Z,4.20
2019-03-24T22:10:08.376Z,4.57
2019-03-24T22:12:37.651Z,4.13
2019-03-24T22:15:10.007Z,4.33
2019-03-24T22:17:39.276Z,4.73
2019-03-24T22:20:08.687Z,3.97
2019-03-24T22:22:37.958Z,4.10
2019-03-24T22:25:07.401Z,4.23
2019-03-24T22:27:36.675Z,4.63
2019-03-24T22:30:10.492Z,4.00
2019-03-24T22:32:39.756Z,3.43
2019-03-24T22:35:09.109Z,3.53
2019-03-24T22:37:38.369Z,4.20
2019-03-24T22:40:08.785Z,5.10
2019-03-24T22:42:38.049Z,4.50
2019-03-24T22:45:07.661Z,3.57
2019-03-24T22:47:36.923Z,4.47
2019-03-24T22:50:07.843Z,4.03
2019-03-24T22:52:37.364Z,4.43
2019-03-24T22:55:08.273Z,5.40
2019-03-24T22:57:37.534Z,4.77
2019-03-24T23:00:10.594Z,5.33
2019-03-24T23:02:41.205Z,4.50
2019-03-24T23:05:10.548Z,4.30
2019-03-24T23:07:39.824Z,4.63
2019-03-24T23:10:09.340Z,5.10
2019-03-24T23:12:38.600Z,5.67
2019-03-24T23:15:07.940Z,4.70
2019-03-24T23:17:37.209Z,4.03
2019-03-24T23:20:06.818Z,4.50
2019-03-24T23:22:36.087Z,3.97
2019-03-24T23:25:07.311Z,4.03
2019-03-24T23:27:36.568Z,4.07
2019-03-24T23:30:09.393Z,4.43
2019-03-24T23:32:38.668Z,4.40
2019-03-24T23:35:09.674Z,4.17
2019-03-24T23:37:38.950Z,4.13
2019-03-24T23:40:08.765Z,4.67
2019-03-24T23:42:38.053Z,3.93
2019-03-24T23:45:07.968Z,5.63
2019-03-24T23:47:37.235Z,3.87
2019-03-24T23:50:06.856Z,4.23
2019-03-24T23:52:37.094Z,4.73
2019-03-24T23:55:06.596Z,4.40
2019-03-24T23:57:35.856Z,4.77
